Terminal Aerodrome Forecast
Issued by NWS

Home | Current Version | Previous Version | Text Only | Print | Product List | Glossary On
Versions: 1 2 3 4 5 6 7 8 9 10 11 12 13 14 15 16
613
FTUS45 KTFX 292331
TAFCTB
TAF
KCTB 292331Z 3000/3024 14010KT P6SM SCT200
     FM300400 VRB06KT P6SM VCTS SCT070CB BKN130 BKN200
      TEMPO 3006/3008 VRB20G35KT -TSRA BKN070CB
     FM300900 VRB06KT P6SM SCT100 BKN200
     FM301900 14010KT P6SM SCT090 BKN150=

USA.gov is the U.S. government's official web portal to all federal, state and local government web resources and services.